Time;durP1;ratioP1;P1;durP2;ratioP2;P2;SDS_P1;SDS_P2;PMS_P1;PMS_P2;Temp;Humidity;BMP_temperature;BMP_pressure;BME280_temperature;BME280_humidity;BME280_pressure;Samples;Min_cycle;Max_cycle;Signal;HPM_P1;HPM_P2
2022/12/11 00:02:01;;;;;;;27.17;14.18;;;2.30;99.90;;;;;;5057269;28;20033;-67
2022/12/11 00:04:27;;;;;;;28.65;14.32;;;2.20;99.90;;;;;;5039845;28;20427;-67
2022/12/11 00:06:53;;;;;;;26.60;13.43;;;2.10;99.90;;;;;;5057189;28;20045;-68
2022/12/11 00:09:19;;;;;;;25.38;14.55;;;2.20;99.90;;;;;;5039792;28;20294;-68
2022/12/11 00:11:47;;;;;;;24.45;14.18;;;2.50;99.90;;;;;;5057081;28;20148;-68
2022/12/11 00:14:13;;;;;;;24.75;14.40;;;2.50;99.90;;;;;;5056984;28;20060;-67
2022/12/11 00:16:39;;;;;;;24.13;14.45;;;2.40;99.90;;;;;;5056250;28;20048;-66
2022/12/11 00:19:06;;;;;;;28.80;16.75;;;2.30;99.90;;;;;;5039677;28;20033;-65
2022/12/11 00:21:32;;;;;;;28.27;16.40;;;2.30;99.90;;;;;;5056999;28;20131;-66
2022/12/11 00:23:58;;;;;;;25.00;14.82;;;2.30;99.90;;;;;;5056132;28;20343;-64
2022/12/11 00:26:25;;;;;;;27.77;15.05;;;2.30;99.90;;;;;;5056226;28;20041;-63
2022/12/11 00:28:56;;;;;;;29.08;15.38;;;2.10;99.90;;;;;;5056212;28;20036;-62
2022/12/11 00:31:22;;;;;;;27.80;15.20;;;2.00;99.90;;;;;;5056243;28;20033;-65
2022/12/11 00:33:49;;;;;;;26.00;16.00;;;2.10;99.90;;;;;;5056102;28;20063;-64
2022/12/11 00:36:21;;;;;;;24.83;15.43;;;2.20;99.90;;;;;;5039560;28;20045;-65
2022/12/11 00:38:47;;;;;;;21.10;11.85;;;2.30;99.90;;;;;;5056044;28;20071;-64
2022/12/11 00:41:13;;;;;;;25.23;15.27;;;2.50;99.90;;;;;;5057053;28;20029;-64
2022/12/11 00:43:39;;;;;;;24.58;14.27;;;2.50;99.90;;;;;;5056036;28;20025;-64
2022/12/11 00:46:05;;;;;;;23.88;14.82;;;2.40;99.90;;;;;;5056707;28;20028;-65
2022/12/11 00:48:31;;;;;;;26.13;14.35;;;2.30;99.90;;;;;;5039250;28;20033;-64
2022/12/11 00:50:57;;;;;;;24.88;14.23;;;2.20;99.90;;;;;;5056649;28;20037;-65
2022/12/11 00:53:23;;;;;;;25.00;14.15;;;2.20;99.90;;;;;;5039430;28;20057;-65
2022/12/11 00:55:49;;;;;;;23.52;13.68;;;2.20;99.90;;;;;;5056026;28;20068;-64
2022/12/11 00:58:15;;;;;;;24.92;13.73;;;2.10;99.90;;;;;;5055820;28;20474;-65
2022/12/11 01:00:42;;;;;;;22.42;13.80;;;2.10;99.90;;;;;;5056368;28;20452;-65
2022/12/11 01:03:09;;;;;;;23.17;12.70;;;2.20;99.90;;;;;;5056562;28;20025;-66
2022/12/11 01:05:35;;;;;;;23.08;13.93;;;2.30;99.90;;;;;;5056105;28;20041;-66
2022/12/11 01:08:01;;;;;;;25.55;13.77;;;2.40;99.90;;;;;;5056528;28;20037;-65
2022/12/11 01:10:27;;;;;;;23.02;13.63;;;2.40;99.90;;;;;;5039388;28;20055;-68
2022/12/11 01:12:56;;;;;;;21.83;12.20;;;2.50;99.90;;;;;;5055744;28;20469;-66
2022/12/11 01:15:24;;;;;;;23.67;14.00;;;2.70;99.90;;;;;;5056438;28;20029;-63
2022/12/11 01:17:50;;;;;;;24.05;13.68;;;2.60;99.90;;;;;;5055492;28;20025;-63
2022/12/11 01:20:18;;;;;;;22.83;12.60;;;2.50;99.90;;;;;;5055640;28;20392;-65
2022/12/11 01:22:44;;;;;;;20.40;12.68;;;2.40;99.90;;;;;;5055527;28;20413;-66
2022/12/11 01:25:09;;;;;;;21.33;12.93;;;2.30;99.90;;;;;;5022723;28;20029;-67
2022/12/11 01:27:36;;;;;;;23.08;13.55;;;2.40;99.90;;;;;;5038967;28;20029;-66
2022/12/11 01:30:04;;;;;;;24.10;13.65;;;2.60;99.90;;;;;;5055624;28;20048;-66
2022/12/11 01:32:31;;;;;;;26.08;13.43;;;2.50;99.90;;;;;;5056230;28;20032;-64
2022/12/11 01:34:57;;;;;;;20.15;12.40;;;2.50;99.90;;;;;;5056291;28;20064;-66
2022/12/11 01:37:23;;;;;;;23.35;13.15;;;2.50;99.90;;;;;;5039080;28;20399;-65
2022/12/11 01:39:48;;;;;;;23.52;13.32;;;2.50;99.90;;;;;;5055549;28;20087;-65
2022/12/11 01:42:18;;;;;;;21.80;14.82;;;2.40;99.90;;;;;;5039107;28;20308;-65
2022/12/11 01:44:43;;;;;;;22.17;12.30;;;2.40;99.90;;;;;;5059909;28;20086;-65
2022/12/11 01:47:09;;;;;;;23.05;12.93;;;2.40;99.90;;;;;;5059055;28;20025;-64
2022/12/11 01:49:36;;;;;;;22.05;12.48;;;2.30;99.90;;;;;;5059726;28;20086;-64
2022/12/11 01:52:07;;;;;;;24.02;11.38;;;2.30;99.90;;;;;;5042441;28;20072;-67
2022/12/11 01:54:34;;;;;;;22.95;11.82;;;2.30;99.90;;;;;;5059005;28;20048;-67
2022/12/11 01:57:04;;;;;;;21.77;11.85;;;2.40;99.90;;;;;;5058903;28;20103;-65
2022/12/11 01:59:33;;;;;;;21.27;11.77;;;2.30;99.90;;;;;;5058889;28;20120;-66
2022/12/11 02:02:15;;;;;;;22.23;12.45;;;2.50;99.90;;;;;;5059498;28;20105;-65
2022/12/11 02:04:43;;;;;;;24.25;12.07;;;2.40;99.90;;;;;;5059530;28;20033;-63
2022/12/11 02:07:09;;;;;;;23.45;13.13;;;2.30;99.90;;;;;;5059234;28;20041;-64
2022/12/11 02:09:38;;;;;;;23.92;12.55;;;2.50;99.90;;;;;;5059401;28;20025;-64
2022/12/11 02:12:37;;;;;;;22.05;12.15;;;2.50;99.90;;;;;;5059264;28;20253;-65
2022/12/11 02:15:27;;;;;;;21.10;12.02;;;2.60;99.90;;;;;;5059313;28;20021;-67
2022/12/11 02:18:07;;;;;;;25.92;13.18;;;2.40;99.90;;;;;;5058337;28;20029;-66
2022/12/11 02:21:06;;;;;;;22.30;12.00;;;2.40;99.90;;;;;;5058388;28;20037;-67
2022/12/11 02:23:35;;;;;;;22.52;12.70;;;2.40;99.90;;;;;;5050826;28;20040;-67
2022/12/11 02:26:28;;;;;;;27.67;13.13;;;2.30;99.90;;;;;;5059074;28;20033;-67
2022/12/11 02:28:59;;;;;;;22.02;12.07;;;2.30;99.90;;;;;;5059024;28;20062;-67
2022/12/11 02:31:37;;;;;;;21.23;12.07;;;2.30;99.90;;;;;;5058267;28;20025;-67
2022/12/11 02:34:12;;;;;;;24.15;13.00;;;2.50;99.90;;;;;;5058910;28;20333;-67
2022/12/11 02:36:45;;;;;;;21.58;12.15;;;2.70;99.90;;;;;;5058129;28;20032;-66
2022/12/11 02:39:14;;;;;;;24.98;13.00;;;2.70;99.90;;;;;;5058734;28;20036;-66
2022/12/11 02:41:46;;;;;;;24.95;11.93;;;2.50;99.90;;;;;;5057985;28;20025;-67
2022/12/11 02:44:14;;;;;;;23.75;12.40;;;2.40;99.90;;;;;;5058651;28;20043;-67
2022/12/11 02:46:41;;;;;;;23.58;12.32;;;2.50;99.90;;;;;;5058074;28;20419;-67
2022/12/11 02:49:09;;;;;;;24.48;12.38;;;2.50;99.90;;;;;;5057990;28;20037;-65
2022/12/11 02:51:38;;;;;;;23.67;12.60;;;2.50;99.90;;;;;;5057871;28;20033;-66
2022/12/11 02:54:09;;;;;;;23.10;11.93;;;2.60;99.90;;;;;;5058137;28;20029;-65
2022/12/11 02:56:52;;;;;;;26.63;12.77;;;2.60;99.90;;;;;;5058531;28;20048;-66
2022/12/11 02:59:20;;;;;;;;;;;2.70;99.90;;;;;;5058362;28;20044;-66
2022/12/11 03:01:46;;;;;;;24.55;12.32;;;2.60;99.90;;;;;;5057630;28;19952;-65
2022/12/11 03:04:12;;;;;;;23.17;12.20;;;2.50;99.90;;;;;;5058324;28;20040;-66
2022/12/11 03:06:47;;;;;;;23.75;12.40;;;2.50;99.90;;;;;;5058114;28;20065;-66
2022/12/11 03:09:13;;;;;;;24.15;12.32;;;2.50;99.90;;;;;;5058282;28;20021;-66
2022/12/11 03:11:39;;;;;;;24.27;13.02;;;2.60;99.90;;;;;;5057521;28;20028;-67
2022/12/11 03:14:06;;;;;;;20.55;11.75;;;2.40;99.90;;;;;;5057476;28;20091;-66
2022/12/11 03:16:36;;;;;;;23.95;12.70;;;2.30;99.90;;;;;;5057986;28;20063;-66
2022/12/11 03:19:14;;;;;;;23.52;12.52;;;2.30;99.90;;;;;;5057484;28;20036;-67
2022/12/11 03:21:47;;;;;;;24.50;13.30;;;2.30;99.90;;;;;;5057995;28;20032;-67
2022/12/11 03:24:21;;;;;;;21.23;12.18;;;2.30;99.90;;;;;;5057958;28;20021;-67
2022/12/11 03:26:54;;;;;;;23.38;12.18;;;2.40;99.90;;;;;;5057895;28;20419;-67
2022/12/11 03:29:24;;;;;;;27.35;12.95;;;2.60;99.90;;;;;;5057910;28;20300;-67
2022/12/11 03:32:07;;;;;;;23.52;12.88;;;2.60;99.90;;;;;;5057869;28;20036;-67
2022/12/11 03:34:38;;;;;;;26.35;13.02;;;2.60;99.90;;;;;;5057788;28;20029;-66
2022/12/11 03:37:06;;;;;;;25.50;13.88;;;2.40;99.90;;;;;;5057068;28;20025;-66
2022/12/11 03:39:37;;;;;;;22.88;13.20;;;2.40;99.90;;;;;;5057704;28;20070;-67
2022/12/11 03:42:07;;;;;;;25.75;12.98;;;2.40;99.90;;;;;;5056987;28;20108;-67
2022/12/11 03:44:34;;;;;;;23.42;13.55;;;2.40;99.90;;;;;;5056914;28;20037;-67
2022/12/11 03:47:05;;;;;;;27.90;14.15;;;2.40;99.90;;;;;;5056821;28;20029;-66
2022/12/11 03:49:35;;;;;;;26.48;13.90;;;2.40;99.90;;;;;;5056789;28;20324;-67
2022/12/11 03:52:03;;;;;;;24.35;13.07;;;2.30;99.90;;;;;;5057835;28;20032;-67
2022/12/11 03:54:29;;;;;;;26.17;13.55;;;2.40;99.90;;;;;;5057412;28;20440;-66
2022/12/11 03:56:58;;;;;;;26.63;14.60;;;2.50;99.90;;;;;;5057350;28;20079;-67
2022/12/11 03:59:24;;;;;;;27.02;14.13;;;2.50;99.90;;;;;;5057244;28;20086;-67
2022/12/11 04:01:50;;;;;;;26.17;13.73;;;2.50;99.90;;;;;;5056622;28;20025;-67
2022/12/11 04:04:16;;;;;;;26.05;14.20;;;2.60;99.90;;;;;;5057226;28;20032;-67
2022/12/11 04:06:41;;;;;;;29.20;14.63;;;2.80;99.90;;;;;;5057048;28;20044;-67
2022/12/11 04:09:07;;;;;;;29.17;15.25;;;2.90;99.90;;;;;;5056546;28;20328;-67
2022/12/11 04:11:33;;;;;;;26.67;13.75;;;2.90;99.90;;;;;;5039910;28;20033;-67
2022/12/11 04:16:53;;;;;;;27.40;13.35;;;3.00;99.90;;;;;;5057028;28;20111;-66
2022/12/11 04:24:49;;;;;;;27.73;14.63;;;3.00;99.90;;;;;;5057272;28;20449;-67
2022/12/11 04:27:47;;;;;;;24.73;13.57;;;2.90;99.90;;;;;;5056940;28;20036;-67
2022/12/11 04:30:04;;;;;;;25.83;14.32;;;2.80;99.90;;;;;;5056197;28;20029;-68
2022/12/11 04:32:30;;;;;;;26.20;14.77;;;2.70;99.90;;;;;;5056754;28;20021;-66
2022/12/11 04:34:56;;;;;;;29.45;14.23;;;2.60;99.90;;;;;;5056878;28;20154;-67
2022/12/11 04:37:22;;;;;;;23.98;14.25;;;2.60;99.90;;;;;;5056054;28;20029;-67
2022/12/11 04:39:48;;;;;;;24.77;14.68;;;2.60;99.90;;;;;;5056868;28;20036;-67
2022/12/11 04:42:13;;;;;;;26.77;14.70;;;2.70;99.90;;;;;;5057246;28;20037;-67
2022/12/11 04:44:39;;;;;;;28.67;15.40;;;2.70;99.90;;;;;;5056969;28;20186;-66
2022/12/11 04:47:05;;;;;;;30.50;15.85;;;2.50;99.90;;;;;;5056019;28;20412;-67
2022/12/11 04:49:31;;;;;;;28.20;16.13;;;2.50;99.90;;;;;;5039356;28;20420;-67
2022/12/11 04:51:56;;;;;;;27.02;15.80;;;2.60;99.90;;;;;;5055931;28;20312;-67
2022/12/11 04:54:22;;;;;;;28.88;16.27;;;2.60;99.90;;;;;;5056545;28;20083;-67
2022/12/11 04:56:48;;;;;;;27.45;15.43;;;2.80;99.90;;;;;;5056364;28;20309;-68
2022/12/11 04:59:14;;;;;;;29.67;16.17;;;2.90;99.90;;;;;;5056557;28;20103;-66
2022/12/11 05:01:40;;;;;;;33.42;15.85;;;2.90;99.90;;;;;;5039311;28;20112;-66
2022/12/11 05:04:06;;;;;;;28.80;14.98;;;2.90;99.90;;;;;;5039282;28;20447;-67
2022/12/11 05:06:31;;;;;;;29.15;15.13;;;2.70;99.90;;;;;;5056383;28;20386;-67
2022/12/11 05:08:57;;;;;;;26.90;15.45;;;2.70;99.90;;;;;;5056503;28;20127;-67
2022/12/11 05:11:23;;;;;;;29.08;15.70;;;2.70;99.90;;;;;;5055826;28;20098;-67
2022/12/11 05:13:49;;;;;;;28.85;15.35;;;2.70;99.90;;;;;;5039169;28;20083;-67
2022/12/11 05:16:15;;;;;;;29.45;15.68;;;2.70;99.90;;;;;;5039054;28;20439;-67
2022/12/11 05:18:42;;;;;;;29.63;15.45;;;2.80;99.90;;;;;;5058070;28;20033;-67
2022/12/11 05:21:11;;;;;;;29.50;16.08;;;2.70;99.90;;;;;;5060193;28;20082;-68
2022/12/11 05:23:37;;;;;;;29.23;15.40;;;2.70;99.90;;;;;;5060176;28;20043;-68
2022/12/11 05:26:06;;;;;;;28.38;15.50;;;2.90;99.90;;;;;;5060688;28;20299;-67
2022/12/11 05:28:35;;;;;;;31.27;15.95;;;3.00;99.90;;;;;;5059392;28;20147;-67
2022/12/11 05:31:05;;;;;;;30.48;16.15;;;3.00;99.90;;;;;;5060126;28;20032;-67
2022/12/11 05:33:31;;;;;;;26.38;15.52;;;3.00;99.90;;;;;;5059982;28;20028;-67
2022/12/11 05:35:57;;;;;;;30.55;16.23;;;3.00;99.90;;;;;;5060582;28;20025;-67
2022/12/11 05:38:23;;;;;;;32.80;16.63;;;3.10;99.90;;;;;;5042463;28;20446;-67
2022/12/11 05:41:17;;;;;;;29.55;16.40;;;3.10;99.90;;;;;;5059248;28;20301;-67
2022/12/11 05:43:43;;;;;;;27.27;15.40;;;3.10;99.90;;;;;;5058913;28;20312;-67
2022/12/11 05:46:17;;;;;;;29.95;15.93;;;2.90;99.90;;;;;;5059730;28;20029;-67
2022/12/11 05:48:46;;;;;;;25.90;15.13;;;2.70;99.90;;;;;;5059714;28;20037;-67
2022/12/11 05:51:14;;;;;;;30.70;16.10;;;2.70;99.90;;;;;;5060301;28;20029;-67
2022/12/11 05:53:41;;;;;;;26.77;15.57;;;2.80;99.90;;;;;;5042199;28;20025;-67
2022/12/11 05:56:11;;;;;;;31.45;16.95;;;2.90;99.90;;;;;;5058785;28;20160;-67
2022/12/11 05:58:38;;;;;;;31.92;16.95;;;3.00;99.90;;;;;;5058817;28;20327;-67
2022/12/11 06:01:10;;;;;;;30.52;15.70;;;3.10;99.90;;;;;;5059030;28;20033;-67
2022/12/11 06:03:36;;;;;;;;;;;3.20;99.90;;;;;;5059098;28;20032;-67
2022/12/11 06:06:04;;;;;;;31.95;16.35;;;3.30;99.90;;;;;;5059281;28;19920;-67
2022/12/11 06:08:30;;;;;;;29.77;16.27;;;3.00;99.90;;;;;;5059907;28;20037;-67
2022/12/11 06:10:56;;;;;;;29.92;16.10;;;2.90;99.90;;;;;;5058549;28;20135;-67
2022/12/11 06:13:22;;;;;;;36.00;18.23;;;2.80;99.90;;;;;;5058584;28;20040;-67
2022/12/11 06:15:48;;;;;;;30.70;15.88;;;2.90;99.90;;;;;;5041786;28;20021;-67
2022/12/11 06:18:14;;;;;;;32.10;16.98;;;3.10;99.90;;;;;;5059069;28;20025;-67
2022/12/11 06:20:40;;;;;;;31.38;15.80;;;3.10;99.90;;;;;;5041821;28;20052;-67
2022/12/11 06:23:06;;;;;;;29.75;17.05;;;2.80;99.90;;;;;;5058412;28;20297;-67
2022/12/11 06:25:32;;;;;;;32.83;16.55;;;2.90;99.90;;;;;;5041800;28;20021;-67
2022/12/11 06:27:58;;;;;;;32.63;17.10;;;3.00;99.90;;;;;;5058532;28;20029;-67
2022/12/11 06:30:24;;;;;;;34.13;18.33;;;2.90;99.90;;;;;;5057109;28;20037;-67
2022/12/11 06:32:50;;;;;;;34.83;17.45;;;2.90;99.90;;;;;;5058916;28;20028;-67
2022/12/11 06:35:16;;;;;;;35.08;18.00;;;2.80;99.90;;;;;;5041765;28;20090;-67
2022/12/11 06:37:41;;;;;;;34.15;17.20;;;2.60;99.90;;;;;;5057997;28;20051;-67
2022/12/11 06:40:10;;;;;;;33.05;18.48;;;2.60;99.90;;;;;;5041546;28;20067;-66
2022/12/11 06:42:36;;;;;;;35.53;18.35;;;2.60;99.90;;;;;;5057999;28;20043;-67
2022/12/11 06:45:02;;;;;;;34.63;18.35;;;2.70;99.90;;;;;;5041416;28;20088;-67
2022/12/11 06:47:29;;;;;;;33.97;17.75;;;2.80;99.90;;;;;;5058604;28;20036;-67
2022/12/11 06:49:55;;;;;;;35.78;17.48;;;2.80;99.90;;;;;;5041395;28;20063;-67
2022/12/11 06:52:23;;;;;;;31.58;17.98;;;2.70;99.90;;;;;;5057766;28;20040;-67
2022/12/11 06:54:49;;;;;;;34.72;18.17;;;2.60;99.90;;;;;;5058495;28;20029;-68
2022/12/11 06:57:16;;;;;;;38.47;18.08;;;2.60;99.90;;;;;;5058337;28;20020;-68
2022/12/11 06:59:41;;;;;;;38.08;17.73;;;2.60;99.90;;;;;;5058329;28;20049;-67
2022/12/11 07:02:15;;;;;;;40.00;18.70;;;2.70;99.90;;;;;;5057647;28;20076;-67
2022/12/11 07:04:41;;;;;;;33.80;17.15;;;2.70;99.90;;;;;;5057645;28;20020;-67
2022/12/11 07:07:08;;;;;;;37.88;17.95;;;2.80;99.90;;;;;;5058138;28;20132;-67
2022/12/11 07:09:35;;;;;;;38.05;19.05;;;2.90;99.90;;;;;;5058268;28;20044;-67
2022/12/11 07:12:02;;;;;;;32.10;17.88;;;2.80;99.90;;;;;;5040798;28;20025;-68
2022/12/11 07:14:29;;;;;;;36.67;18.80;;;2.90;99.90;;;;;;5041053;28;20032;-67
2022/12/11 07:16:56;;;;;;;35.63;17.10;;;2.90;99.90;;;;;;5040767;28;20037;-68
2022/12/11 07:19:21;;;;;;;39.85;19.20;;;3.00;99.90;;;;;;5057204;28;20392;-68
2022/12/11 07:21:47;;;;;;;33.92;17.15;;;2.90;99.90;;;;;;5040786;28;20033;-68
2022/12/11 07:24:13;;;;;;;36.75;18.25;;;3.00;99.90;;;;;;5057961;28;20033;-68
2022/12/11 07:26:39;;;;;;;36.78;16.83;;;2.90;99.90;;;;;;5057196;28;20040;-68
2022/12/11 07:29:05;;;;;;;40.17;18.27;;;2.90;99.90;;;;;;5040638;28;20419;-67
2022/12/11 07:31:31;;;;;;;38.75;18.58;;;2.90;99.90;;;;;;5057825;28;20039;-68
2022/12/11 07:34:00;;;;;;;40.95;17.77;;;2.80;99.90;;;;;;5057749;28;20029;-66
2022/12/11 07:36:27;;;;;;;39.78;19.52;;;2.80;99.90;;;;;;5057721;28;20040;-67
2022/12/11 07:38:53;;;;;;;38.72;18.40;;;2.70;99.90;;;;;;5056790;28;20055;-67
2022/12/11 07:41:19;;;;;;;33.17;18.75;;;2.70;99.90;;;;;;5057357;28;20020;-66
2022/12/11 07:43:52;;;;;;;34.83;18.35;;;2.90;99.90;;;;;;5025671;28;20025;-67
2022/12/11 07:46:24;;;;;;;36.88;18.52;;;2.90;99.90;;;;;;5057487;28;20029;-69
2022/12/11 07:48:50;;;;;;;39.15;18.08;;;3.00;99.90;;;;;;5056634;28;20025;-69
2022/12/11 07:51:19;;;;;;;37.22;18.10;;;2.70;99.90;;;;;;5056809;28;20041;-68
2022/12/11 07:53:47;;;;;;;38.67;19.05;;;2.50;99.90;;;;;;5056685;28;20341;-67
2022/12/11 07:56:14;;;;;;;39.33;18.67;;;2.30;99.90;;;;;;5056459;28;20189;-66
2022/12/11 07:58:40;;;;;;;44.72;19.40;;;2.30;99.90;;;;;;5057103;28;20068;-67
2022/12/11 08:01:18;;;;;;;43.95;20.27;;;2.50;99.90;;;;;;5056307;28;20347;-67
2022/12/11 08:03:44;;;;;;;39.95;18.83;;;2.50;99.90;;;;;;5057080;28;20061;-67
2022/12/11 08:06:11;;;;;;;39.45;19.70;;;2.50;99.90;;;;;;5056594;28;20087;-68
2022/12/11 08:08:38;;;;;;;43.33;21.42;;;2.50;99.90;;;;;;5056670;28;20214;-65
2022/12/11 08:11:06;;;;;;;38.72;20.42;;;2.60;99.90;;;;;;5039045;28;20036;-65
2022/12/11 08:13:32;;;;;;;43.13;22.27;;;2.70;99.90;;;;;;5056107;28;20301;-67
2022/12/11 08:16:01;;;;;;;41.10;21.63;;;2.60;99.90;;;;;;5056190;28;20041;-68
2022/12/11 08:18:27;;;;;;;44.58;20.98;;;2.40;99.90;;;;;;5056023;28;20056;-67
2022/12/11 08:20:53;;;;;;;45.45;23.05;;;2.30;99.90;;;;;;5056717;28;20332;-66
2022/12/11 08:23:19;;;;;;;48.75;22.83;;;2.40;99.90;;;;;;5056726;28;20055;-66
2022/12/11 08:25:44;;;;;;;43.33;20.60;;;2.30;99.90;;;;;;5023224;28;20040;-66
2022/12/11 08:28:10;;;;;;;40.50;19.85;;;2.30;99.90;;;;;;5056944;28;20025;-67
2022/12/11 08:30:38;;;;;;;40.15;19.30;;;2.30;99.90;;;;;;5056034;28;20033;-67
2022/12/11 08:33:05;;;;;;;43.80;20.90;;;2.20;99.90;;;;;;5056835;28;20033;-65
2022/12/11 08:35:31;;;;;;;40.95;18.98;;;2.20;99.90;;;;;;5056083;28;20321;-65
2022/12/11 08:37:57;;;;;;;40.83;19.40;;;2.30;99.90;;;;;;5039706;28;20048;-69
2022/12/11 08:40:23;;;;;;;39.78;18.45;;;2.20;99.90;;;;;;5056063;28;20371;-68
2022/12/11 08:42:49;;;;;;;43.72;20.02;;;2.30;99.90;;;;;;5039391;28;20040;-67
2022/12/11 08:45:14;;;;;;;38.88;18.02;;;2.20;99.90;;;;;;5039429;28;20036;-67
2022/12/11 08:47:41;;;;;;;38.05;19.27;;;2.10;99.90;;;;;;5055892;28;20463;-68
2022/12/11 08:50:07;;;;;;;42.67;20.13;;;2.30;99.90;;;;;;5039367;28;20048;-67
2022/12/11 08:52:36;;;;;;;40.25;18.85;;;2.40;99.90;;;;;;5056647;28;20033;-66
2022/12/11 08:55:02;;;;;;;41.70;19.55;;;2.30;99.90;;;;;;5043458;28;20118;-67
2022/12/11 08:57:28;;;;;;;34.33;18.33;;;2.30;99.90;;;;;;5059903;28;20348;-66
2022/12/11 08:59:53;;;;;;;41.10;19.50;;;2.30;99.90;;;;;;5060679;28;20025;-68
2022/12/11 09:02:19;;;;;;;36.72;18.40;;;2.40;99.90;;;;;;5059980;28;20040;-66
2022/12/11 09:04:45;;;;;;;36.50;18.40;;;2.40;99.90;;;;;;5060984;28;20078;-69
2022/12/11 09:07:11;;;;;;;37.40;18.10;;;2.30;99.90;;;;;;5060447;28;20059;-67
2022/12/11 09:09:37;;;;;;;36.33;18.35;;;2.30;99.90;;;;;;5059825;28;20033;-69
2022/12/11 09:12:03;;;;;;;40.03;18.45;;;2.20;99.90;;;;;;5060471;28;20119;-68
2022/12/11 09:14:29;;;;;;;38.80;18.73;;;2.20;99.90;;;;;;5060475;28;20029;-68
2022/12/11 09:16:55;;;;;;;39.47;18.33;;;2.20;99.90;;;;;;5043181;28;20028;-68
2022/12/11 09:19:21;;;;;;;37.20;18.05;;;2.30;99.90;;;;;;5059501;28;20424;-68
2022/12/11 09:21:47;;;;;;;36.50;18.50;;;2.30;99.90;;;;;;5060242;28;20029;-68
2022/12/11 09:24:14;;;;;;;38.72;17.95;;;2.40;99.90;;;;;;5059484;28;20045;-66
2022/12/11 09:26:41;;;;;;;38.30;17.67;;;2.30;99.90;;;;;;5059521;28;20021;-68
2022/12/11 09:29:07;;;;;;;37.22;17.60;;;2.20;99.90;;;;;;5059466;28;20304;-68
2022/12/11 09:31:35;;;;;;;38.13;17.38;;;2.20;99.90;;;;;;5060123;28;20052;-68
2022/12/11 09:34:06;;;;;;;34.92;17.42;;;2.20;99.90;;;;;;5060041;28;20037;-68
2022/12/11 09:36:33;;;;;;;36.40;17.50;;;2.20;99.90;;;;;;5059321;28;20095;-69
2022/12/11 09:39:00;;;;;;;35.67;17.25;;;2.20;99.90;;;;;;5059876;28;20296;-68
2022/12/11 09:41:46;;;;;;;37.28;17.80;;;2.30;99.90;;;;;;5060330;28;20044;-69
2022/12/11 09:44:38;;;;;;;40.05;17.58;;;2.30;99.90;;;;;;5059885;28;20039;-68
2022/12/11 09:47:32;;;;;;;35.60;16.77;;;2.30;99.90;;;;;;5059173;28;20112;-68
2022/12/11 09:50:13;;;;;;;34.75;16.30;;;2.40;99.90;;;;;;5059672;28;20047;-69
2022/12/11 09:52:51;;;;;;;37.17;17.02;;;2.60;99.90;;;;;;5058952;28;20346;-69
2022/12/11 09:55:23;;;;;;;35.42;17.45;;;3.00;99.90;;;;;;5059645;28;20115;-69
2022/12/11 09:58:23;;;;;;;35.42;17.85;;;3.20;99.90;;;;;;5042237;28;20029;-67
2022/12/11 10:00:54;;;;;;;34.97;16.95;;;3.40;99.90;;;;;;5059526;28;20021;-67
2022/12/11 10:03:38;;;;;;;38.67;17.48;;;3.60;99.90;;;;;;5058851;28;20057;-67
2022/12/11 10:06:21;;;;;;;36.00;17.35;;;3.70;99.90;;;;;;5059271;28;20055;-67
2022/12/11 10:08:52;;;;;;;36.40;17.52;;;3.50;99.90;;;;;;5059375;28;20036;-67
2022/12/11 10:11:45;;;;;;;33.10;16.30;;;3.40;99.90;;;;;;5041944;28;20048;-67
2022/12/11 10:14:49;;;;;;;34.67;17.08;;;3.30;99.90;;;;;;5058520;28;20124;-67
2022/12/11 10:17:19;;;;;;;34.78;17.38;;;3.20;99.90;;;;;;5058371;28;20115;-66
2022/12/11 10:19:46;;;;;;;37.10;17.70;;;2.90;99.90;;;;;;5058263;28;20300;-67
2022/12/11 10:22:22;;;;;;;33.25;15.88;;;2.90;99.90;;;;;;5041691;28;20293;-66
2022/12/11 10:25:05;;;;;;;32.70;16.38;;;2.90;99.90;;;;;;5041807;28;20087;-67
2022/12/11 10:27:34;;;;;;;33.17;17.13;;;2.90;99.90;;;;;;5059448;28;20340;-67
2022/12/11 10:30:14;;;;;;;33.25;16.65;;;2.90;99.90;;;;;;5041552;28;20063;-67
2022/12/11 10:32:46;;;;;;;33.42;16.15;;;2.90;99.90;;;;;;5058048;28;20296;-67
2022/12/11 10:35:38;;;;;;;36.70;17.88;;;3.00;99.90;;;;;;5058048;28;20021;-67
2022/12/11 10:38:31;;;;;;;33.30;17.33;;;3.20;99.90;;;;;;5059012;28;20301;-67
2022/12/11 10:41:03;;;;;;;32.67;16.52;;;3.00;99.90;;;;;;5058852;28;20404;-67
2022/12/11 10:43:41;;;;;;;29.65;15.90;;;2.90;99.90;;;;;;5058912;28;20033;-67
2022/12/11 10:46:24;;;;;;;31.30;16.25;;;2.60;99.90;;;;;;5041269;28;20039;-67
2022/12/11 10:48:55;;;;;;;33.70;16.85;;;2.40;99.90;;;;;;5057804;28;20041;-66
2022/12/11 10:51:31;;;;;;;29.77;16.03;;;2.40;99.90;;;;;;5058653;28;20098;-67
2022/12/11 10:54:05;;;;;;;34.50;16.70;;;2.70;99.90;;;;;;5057858;28;20271;-66
2022/12/11 10:56:33;;;;;;;33.28;16.42;;;2.70;99.90;;;;;;5058546;28;20033;-67
2022/12/11 10:59:00;;;;;;;29.70;16.33;;;2.90;99.90;;;;;;5041297;28;20041;-68
2022/12/11 11:01:31;;;;;;;28.40;16.40;;;3.00;99.90;;;;;;5041079;28;20131;-67
2022/12/11 11:04:14;;;;;;;33.03;18.50;;;2.80;99.90;;;;;;5058433;28;20044;-67
2022/12/11 11:06:40;;;;;;;29.85;16.10;;;2.90;99.90;;;;;;5058172;28;20045;-68
2022/12/11 11:09:30;;;;;;;30.20;16.02;;;3.20;99.90;;;;;;5040986;28;20140;-68
2022/12/11 11:11:56;;;;;;;33.25;16.83;;;3.40;99.90;;;;;;5058724;28;20418;-67
2022/12/11 11:14:22;;;;;;;33.17;16.20;;;3.10;99.90;;;;;;5041264;28;20040;-67
2022/12/11 11:16:50;;;;;;;31.00;15.93;;;2.80;99.90;;;;;;5056627;28;20382;-68
2022/12/11 11:19:30;;;;;;;33.38;17.67;;;2.70;99.90;;;;;;5057144;28;20028;-67
2022/12/11 11:22:00;;;;;;;34.22;16.88;;;2.70;99.90;;;;;;5058622;28;20029;-67
2022/12/11 11:24:35;;;;;;;33.83;16.23;;;2.70;99.90;;;;;;5057901;28;20064;-67
2022/12/11 11:27:02;;;;;;;30.13;16.05;;;2.70;99.90;;;;;;5057284;28;20029;-68
2022/12/11 11:29:31;;;;;;;27.98;15.60;;;2.70;99.90;;;;;;5057209;28;20094;-67
2022/12/11 11:32:18;;;;;;;30.23;16.27;;;2.60;99.90;;;;;;5058191;28;20079;-67
2022/12/11 11:34:44;;;;;;;30.50;14.73;;;2.70;99.90;;;;;;5057800;28;20025;-67
2022/12/11 11:37:37;;;;;;;25.92;13.88;;;2.70;99.90;;;;;;5056937;28;20036;-68
2022/12/11 11:40:20;;;;;;;29.60;15.40;;;2.90;99.90;;;;;;5056602;28;20347;-67
2022/12/11 11:42:48;;;;;;;;;;;2.90;99.90;;;;;;5058086;28;20377;-67
2022/12/11 11:45:27;;;;;;;22.80;13.02;;;2.90;99.90;;;;;;5056781;28;19909;-67
2022/12/11 11:48:15;;;;;;;25.33;12.82;;;2.80;99.90;;;;;;5056731;28;20324;-68
2022/12/11 11:50:45;;;;;;;24.77;13.18;;;3.10;99.90;;;;;;5056716;28;20340;-68
2022/12/11 11:53:31;;;;;;;22.13;12.77;;;3.40;99.90;;;;;;5056686;28;20033;-67
2022/12/11 11:56:09;;;;;;;22.45;13.13;;;3.80;99.90;;;;;;5056722;28;20041;-68
2022/12/11 11:58:59;;;;;;;23.35;13.13;;;4.10;99.90;;;;;;5057334;28;20021;-68
2022/12/11 12:01:26;;;;;;;25.08;14.25;;;4.20;99.90;;;;;;5057311;28;20040;-68
2022/12/11 12:03:52;;;;;;;21.52;13.07;;;4.00;99.90;;;;;;5057330;28;20274;-67
2022/12/11 12:06:38;;;;;;;25.60;14.18;;;3.90;99.90;;;;;;5039672;28;20045;-67
2022/12/11 12:09:32;;;;;;;27.92;14.35;;;3.80;99.90;;;;;;5040128;28;20388;-68
2022/12/11 12:12:28;;;;;;;28.52;14.43;;;3.70;99.90;;;;;;5057156;28;20059;-68
2022/12/11 12:15:06;;;;;;;25.58;13.75;;;3.90;99.90;;;;;;5057143;28;20044;-67
2022/12/11 12:17:51;;;;;;;25.92;14.10;;;3.90;99.90;;;;;;5056955;28;20053;-67
2022/12/11 12:20:35;;;;;;;26.45;14.68;;;3.70;99.90;;;;;;5057064;28;20094;-67
2022/12/11 12:23:24;;;;;;;28.63;14.88;;;3.40;99.90;;;;;;5056790;28;20031;-69
2022/12/11 12:26:06;;;;;;;25.42;14.30;;;3.60;99.90;;;;;;5056250;28;20033;-69
2022/12/11 12:28:56;;;;;;;28.80;14.27;;;3.50;99.90;;;;;;5056008;28;20025;-69
2022/12/11 12:31:48;;;;;;;24.75;14.75;;;3.70;99.90;;;;;;5056905;28;20040;-68
2022/12/11 12:34:36;;;;;;;29.42;14.38;;;4.00;99.90;;;;;;5053925;28;20048;-67
2022/12/11 12:37:36;;;;;;;26.23;13.68;;;3.80;99.90;;;;;;5056121;28;20029;-68
2022/12/11 12:40:30;;;;;;;27.75;14.45;;;4.00;99.90;;;;;;5057174;28;20033;-66
2022/12/11 12:43:33;;;;;;;23.20;14.00;;;3.90;99.90;;;;;;5056035;28;20028;-68
2022/12/11 12:46:33;;;;;;;24.27;13.80;;;3.60;99.90;;;;;;5056805;28;20032;-66
2022/12/11 12:49:00;;;;;;;29.25;14.55;;;3.50;99.90;;;;;;5056576;28;20297;-67
2022/12/11 12:51:27;;;;;;;23.80;13.43;;;3.60;99.90;;;;;;5056625;28;20052;-67
2022/12/11 12:53:57;;;;;;;23.77;13.02;;;3.70;99.90;;;;;;5056682;28;20029;-67
2022/12/11 12:56:24;;;;;;;25.67;14.15;;;3.90;99.90;;;;;;5055851;28;20414;-68
2022/12/11 12:58:50;;;;;;;26.38;14.60;;;4.00;99.90;;;;;;5055689;28;20333;-68
2022/12/11 13:01:19;;;;;;;21.40;11.25;;;3.80;99.90;;;;;;5039356;28;20079;-68
2022/12/11 13:04:06;;;;;;;20.67;10.43;;;3.80;99.90;;;;;;5055744;28;20116;-68
2022/12/11 13:06:35;;;;;;;19.63;9.55;;;3.70;99.90;;;;;;5055814;28;20076;-68